Olmos, Texas
Current Conditions -  °F | °C
As of 2:55 PM on Tuesday 21 Oct 2014 (Local Time) from KBEA Reporting Station
Scattered Clouds Scattered Clouds  
Wind Chill: 84°   Ceiling: Unl
Heat Index: 84°   Visibility: 10mi
Dew Point: 58°   Wind: 6mph
Humidity: 42%   Direction: 100°E
Pressure: 29.96"   Gusts: NA
Location:  28.2201°N, 97.6762°W
Report Text: KBEA 211955Z AUTO 10005KT 10SM SCT050 29/15 A2996 RMK AO2 T02880146
Loading
Personal Weather Stations






























Interactive Weather Map
Tropical Storm Tracking
New forecast layout! Learn more

10-Day Weather Forecast

Advertisements
Track Severe Weather on mobile